Time;durP1;ratioP1;P1;durP2;ratioP2;P2;SDS_P1;SDS_P2;PMS_P1;PMS_P2;Temp;Humidity;BMP_temperature;BMP_pressure;BME280_temperature;BME280_humidity;BME280_pressure;Samples;Min_cycle;Max_cycle;Signal;HPM_P1;HPM_P2
2022/08/23 00:00:45;;;;;;;5.37;4.97;;;19.30;34.00;;;;;;5135604;27;20811;-74
2022/08/23 00:03:13;;;;;;;7.80;5.47;;;19.30;66.20;;;;;;5135461;27;20499;-74
2022/08/23 00:05:39;;;;;;;8.60;6.10;;;19.30;99.90;;;;;;5135419;27;20957;-74
2022/08/23 00:08:06;;;;;;;7.43;4.90;;;19.30;83.30;;;;;;5134979;27;20466;-74
2022/08/23 00:10:33;;;;;;;4.83;4.23;;;19.30;99.90;;;;;;5135033;27;20463;-74
2022/08/23 00:13:00;;;;;;;7.17;5.03;;;19.20;99.90;;;;;;5135377;27;20937;-74
2022/08/23 00:15:28;;;;;;;6.33;5.00;;;19.20;99.90;;;;;;5135199;27;20442;-74
2022/08/23 00:17:55;;;;;;;5.63;4.93;;;19.20;99.90;;;;;;5135176;27;20852;-74
2022/08/23 00:20:21;;;;;;;5.13;4.63;;;19.10;99.90;;;;;;5134917;27;20462;-74
2022/08/23 00:22:48;;;;;;;5.10;4.70;;;19.10;99.90;;;;;;5134784;27;21020;-74
2022/08/23 00:25:15;;;;;;;4.53;4.13;;;19.10;99.90;;;;;;5134849;27;20442;-74
2022/08/23 00:27:42;;;;;;;6.40;4.90;;;19.10;99.90;;;;;;5134794;27;20478;-74
2022/08/23 00:30:11;;;;;;;6.33;4.60;;;19.10;99.90;;;;;;5134776;27;20949;-73
2022/08/23 00:32:40;;;;;;;7.40;5.20;;;19.00;99.90;;;;;;5134929;27;20441;-74
2022/08/23 00:35:08;;;;;;;5.60;5.10;;;19.10;99.90;;;;;;5134505;27;20442;-73
2022/08/23 00:37:36;;;;;;;5.30;4.80;;;19.00;99.90;;;;;;5134566;27;20442;-73
2022/08/23 00:40:03;;;;;;;8.57;5.30;;;19.10;99.90;;;;;;5134467;27;20469;-73
2022/08/23 00:48:14;;;;;;;6.50;5.90;;;19.20;99.90;;;;;;5134489;27;20819;-74
2022/08/23 00:50:49;;;;;;;4.73;4.33;;;19.10;99.90;;;;;;5134606;27;20438;-74
2022/08/23 00:53:20;;;;;;;5.37;4.97;;;19.00;99.90;;;;;;5134600;27;20430;-74
2022/08/23 00:55:50;;;;;;;6.10;5.10;;;19.00;99.90;;;;;;5134551;27;20792;-74
2022/08/23 00:58:19;;;;;;;5.13;4.73;;;18.80;99.90;;;;;;5134306;27;20444;-74
2022/08/23 01:00:47;;;;;;;6.97;5.10;;;19.10;99.90;;;;;;5134338;27;20815;-74
2022/08/23 01:03:16;;;;;;;5.27;4.87;;;19.10;99.90;;;;;;5134264;27;20456;-74
2022/08/23 01:05:47;;;;;;;6.13;5.50;;;19.10;99.90;;;;;;5134317;27;20449;-75
2022/08/23 01:08:14;;;;;;;5.07;4.57;;;18.70;99.90;;;;;;5134270;27;20465;-74
2022/08/23 01:10:43;;;;;;;5.57;5.07;;;19.20;99.90;;;;;;5134115;27;20446;-74
2022/08/23 01:13:16;;;;;;;9.23;5.03;;;19.20;99.90;;;;;;5134235;27;20450;-74
2022/08/23 01:15:47;;;;;;;5.60;4.60;;;19.30;99.90;;;;;;5134164;27;20430;-74
2022/08/23 01:18:18;;;;;;;5.63;5.13;;;19.40;99.90;;;;;;5133944;27;20433;-74
2022/08/23 01:20:50;;;;;;;8.77;5.20;;;19.10;99.90;;;;;;5133773;27;20422;-75
2022/08/23 01:23:27;;;;;;;7.00;4.90;;;19.10;99.90;;;;;;5133608;27;20426;-74
2022/08/23 01:25:55;;;;;;;5.57;5.07;;;19.00;95.30;;;;;;5134054;27;20422;-74
2022/08/23 01:28:21;;;;;;;5.90;5.10;;;18.90;99.90;;;;;;5133561;28;20489;-74
2022/08/23 01:30:48;;;;;;;7.20;4.80;;;19.00;99.90;;;;;;5133839;28;20437;-74
2022/08/23 01:33:15;;;;;;;5.30;4.80;;;19.00;80.40;;;;;;5133915;28;20442;-74
2022/08/23 01:35:46;;;;;;;4.97;4.47;;;18.90;99.90;;;;;;5133955;28;20524;-74
2022/08/23 01:38:14;;;;;;;6.07;5.03;;;19.20;46.40;;;;;;5133651;28;20422;-74
2022/08/23 01:40:43;;;;;;;6.03;5.43;;;18.90;30.90;;;;;;5133968;27;20427;-73
2022/08/23 01:43:11;;;;;;;6.47;5.43;;;19.00;99.90;;;;;;5134099;27;20441;-75
2022/08/23 01:45:38;;;;;;;5.73;4.33;;;19.10;99.90;;;;;;5133756;28;20454;-74
2022/08/23 01:48:05;;;;;;;7.20;5.13;;;19.10;20.20;;;;;;5134262;28;20847;-74
2022/08/23 01:50:32;;;;;;;4.60;4.20;;;19.10;81.90;;;;;;5134237;27;20455;-74
2022/08/23 01:52:59;;;;;;;5.97;4.30;;;19.00;17.60;;;;;;5133832;28;20807;-73
2022/08/23 01:55:27;;;;;;;4.57;4.10;;;18.90;7.50;;;;;;5134262;28;20450;-73
2022/08/23 01:57:57;;;;;;;4.57;4.17;;;19.00;99.90;;;;;;5136693;27;20442;-74
2022/08/23 02:00:28;;;;;;;8.73;5.00;;;19.00;2.90;;;;;;5137491;27;20998;-73
2022/08/23 02:02:55;;;;;;;14.13;4.83;;;18.90;1.00;;;;;;5137735;27;20461;-73
2022/08/23 02:05:22;;;;;;;5.73;4.67;;;18.90;1.00;;;;;;5137558;27;20532;-75
2022/08/23 02:07:49;;;;;;;5.70;4.47;;;18.80;1.00;;;;;;5137534;27;20528;-74
2022/08/23 02:10:16;;;;;;;6.00;4.23;;;18.80;92.40;;;;;;5137418;27;20557;-74
2022/08/23 02:12:43;;;;;;;5.60;4.50;;;18.90;24.50;;;;;;5137398;27;20445;-73
2022/08/23 02:15:11;;;;;;;5.03;4.60;;;18.80;1.00;;;;;;5137495;27;20449;-74
2022/08/23 02:17:38;;;;;;;5.43;4.30;;;18.80;99.90;;;;;;5137399;27;20834;-74
2022/08/23 02:20:07;;;;;;;4.77;3.90;;;18.90;50.50;;;;;;5137181;27;20466;-73
2022/08/23 02:22:34;;;;;;;6.20;4.50;;;18.80;1.00;;;;;;5137212;27;20446;-73
2022/08/23 02:25:01;;;;;;;5.43;4.97;;;18.70;22.50;;;;;;5137138;27;20473;-73
2022/08/23 02:27:28;;;;;;;4.43;4.10;;;18.70;40.10;;;;;;5136904;27;20441;-73
2022/08/23 02:29:55;;;;;;;6.00;4.03;;;18.60;43.00;;;;;;5136705;27;20466;-74
2022/08/23 02:32:23;;;;;;;7.37;4.33;;;18.70;87.70;;;;;;5137088;27;20445;-73
2022/08/23 02:34:50;;;;;;;5.37;4.87;;;18.80;96.00;;;;;;5136954;27;20445;-74
2022/08/23 02:37:16;;;;;;;6.20;4.43;;;18.80;18.60;;;;;;5137040;27;20449;-73
2022/08/23 02:39:43;;;;;;;8.40;4.40;;;18.70;99.90;;;;;;5136588;27;20478;-74
2022/08/23 02:42:10;;;;;;;5.73;4.37;;;18.70;83.60;;;;;;5136970;27;20552;-75
2022/08/23 02:44:38;;;;;;;5.50;4.43;;;18.60;54.20;;;;;;5136847;27;20438;-75
2022/08/23 02:47:07;;;;;;;4.10;3.77;;;18.70;66.90;;;;;;5136528;27;20446;-74
2022/08/23 02:49:36;;;;;;;4.70;4.20;;;18.60;97.50;;;;;;5136398;27;20530;-74
2022/08/23 02:52:05;;;;;;;3.90;3.70;;;18.80;99.90;;;;;;5136784;27;20438;-74
2022/08/23 02:54:32;;;;;;;5.00;4.50;;;18.70;67.30;;;;;;5136666;27;20540;-76
2022/08/23 02:56:59;;;;;;;6.90;4.30;;;18.70;99.90;;;;;;5136548;27;20438;-74
2022/08/23 02:59:26;;;;;;;7.33;4.77;;;18.70;92.10;;;;;;5136526;27;20462;-75
2022/08/23 03:01:52;;;;;;;4.70;4.30;;;18.70;99.90;;;;;;5136072;27;20445;-74
2022/08/23 03:04:19;;;;;;;7.70;4.70;;;18.70;99.90;;;;;;5136371;27;20445;-74
2022/08/23 03:06:47;;;;;;;9.10;5.27;;;18.70;99.90;;;;;;5136275;27;20799;-74
2022/08/23 03:09:14;;;;;;;4.47;4.07;;;18.80;80.70;;;;;;5135769;27;20593;-75
2022/08/23 03:11:44;;;;;;;5.40;4.90;;;18.70;99.90;;;;;;5136507;27;20813;-74
2022/08/23 03:14:11;;;;;;;5.73;5.10;;;18.60;99.90;;;;;;5136642;27;20499;-75
2022/08/23 03:16:39;;;;;;;5.97;5.30;;;18.60;99.90;;;;;;5136411;27;20540;-74
2022/08/23 03:19:05;;;;;;;6.07;4.60;;;18.60;99.90;;;;;;5136267;27;20461;-76
2022/08/23 03:21:32;;;;;;;5.90;4.83;;;18.60;99.90;;;;;;5136253;27;20499;-74
2022/08/23 03:24:01;;;;;;;6.67;4.77;;;18.60;99.90;;;;;;5136205;27;20442;-73
2022/08/23 03:26:27;;;;;;;4.70;4.33;;;18.60;99.90;;;;;;5135955;27;20446;-73
2022/08/23 03:28:54;;;;;;;6.50;5.53;;;18.50;99.90;;;;;;5136541;27;20487;-73
2022/08/23 03:31:21;;;;;;;10.70;5.43;;;18.50;99.90;;;;;;5136013;27;20446;-74
2022/08/23 03:33:48;;;;;;;6.13;5.20;;;18.50;99.90;;;;;;5135593;27;20445;-74
2022/08/23 03:36:15;;;;;;;7.73;4.60;;;18.50;99.90;;;;;;5135866;27;20490;-73
2022/08/23 03:38:42;;;;;;;5.50;5.00;;;18.30;99.90;;;;;;5162535;22;20450;-76
2022/08/23 03:41:10;;;;;;;8.67;5.50;;;18.60;99.90;;;;;;5116104;28;20793;-76
2022/08/23 03:43:38;;;;;;;6.70;5.40;;;18.60;99.90;;;;;;5116169;28;20450;-75
2022/08/23 03:46:06;;;;;;;6.00;5.07;;;18.50;99.90;;;;;;5116697;28;20504;-75
2022/08/23 03:48:33;;;;;;;5.93;5.43;;;18.70;99.90;;;;;;5115904;28;20503;-75
2022/08/23 03:51:00;;;;;;;5.97;5.37;;;18.50;99.90;;;;;;5115836;28;20446;-76
2022/08/23 03:53:27;;;;;;;9.90;5.27;;;18.50;99.90;;;;;;5115820;28;20443;-76
2022/08/23 03:55:55;;;;;;;7.67;5.60;;;18.40;99.90;;;;;;5115808;28;20443;-74
2022/08/23 03:58:24;;;;;;;5.83;5.13;;;18.60;99.90;;;;;;5115299;28;20443;-75
2022/08/23 04:00:51;;;;;;;6.13;5.13;;;18.50;99.90;;;;;;5115824;28;20441;-75
2022/08/23 04:03:18;;;;;;;8.90;5.57;;;18.50;99.90;;;;;;5115266;28;20450;-76
2022/08/23 04:05:45;;;;;;;9.93;5.63;;;18.50;99.90;;;;;;5115227;28;20451;-76
2022/08/23 04:08:12;;;;;;;6.13;5.00;;;18.50;99.90;;;;;;5115082;28;20475;-75
2022/08/23 04:10:39;;;;;;;7.87;5.93;;;18.50;99.90;;;;;;5115455;28;20814;-77
2022/08/23 04:13:07;;;;;;;6.20;5.60;;;18.50;99.90;;;;;;5119048;28;20438;-75
2022/08/23 04:15:36;;;;;;;6.40;5.80;;;18.50;99.90;;;;;;5128099;28;20447;-74
2022/08/23 04:18:03;;;;;;;6.30;5.70;;;18.50;99.90;;;;;;5127734;28;20516;-75
2022/08/23 04:20:30;;;;;;;8.03;5.97;;;18.50;99.90;;;;;;5120645;28;20474;-76
2022/08/23 04:22:57;;;;;;;6.70;5.87;;;18.50;99.90;;;;;;5117636;28;20488;-74
2022/08/23 04:25:24;;;;;;;6.80;6.07;;;18.50;99.90;;;;;;5122828;28;20447;-76
2022/08/23 04:27:51;;;;;;;10.20;6.20;;;18.50;99.90;;;;;;5115906;28;20443;-76
2022/08/23 04:30:19;;;;;;;8.83;6.10;;;18.50;99.90;;;;;;5114809;28;20474;-76
2022/08/23 04:32:47;;;;;;;6.73;5.73;;;18.40;99.90;;;;;;5114309;28;20965;-76
2022/08/23 04:35:14;;;;;;;7.10;6.33;;;18.70;99.90;;;;;;5114742;28;20447;-75
2022/08/23 04:37:41;;;;;;;7.67;6.03;;;18.60;99.90;;;;;;5114560;28;20449;-76
2022/08/23 04:42:54;;;;;;;8.43;5.83;;;18.70;99.90;;;;;;5114190;28;20445;-75
2022/08/23 04:45:20;;;;;;;12.03;7.17;;;18.70;99.90;;;;;;5114057;28;20500;-76
2022/08/23 04:47:48;;;;;;;8.47;6.13;;;18.60;99.90;;;;;;5114358;28;20447;-76
2022/08/23 04:50:15;;;;;;;8.80;6.00;;;18.70;99.90;;;;;;5114117;28;20493;-76
2022/08/23 04:52:42;;;;;;;6.47;5.87;;;18.60;99.90;;;;;;5114123;28;20454;-76
2022/08/23 04:55:09;;;;;;;7.40;6.53;;;18.50;99.90;;;;;;5114198;28;20446;-75
2022/08/23 04:57:36;;;;;;;7.70;5.60;;;18.50;99.90;;;;;;5114485;28;20446;-75
2022/08/23 05:00:04;;;;;;;13.30;6.93;;;18.60;99.90;;;;;;5114509;28;20462;-75
2022/08/23 05:02:31;;;;;;;6.20;5.60;;;18.70;99.90;;;;;;5114327;28;20953;-76
2022/08/23 05:04:59;;;;;;;8.57;6.40;;;18.60;99.90;;;;;;5114150;28;20447;-76
2022/08/23 05:07:26;;;;;;;8.00;6.20;;;18.70;99.90;;;;;;5114278;28;20447;-76
2022/08/23 05:09:53;;;;;;;6.60;5.97;;;18.70;99.90;;;;;;5113790;28;21028;-76
2022/08/23 05:12:19;;;;;;;7.37;5.67;;;18.80;99.90;;;;;;5114245;28;20470;-75
2022/08/23 05:14:46;;;;;;;6.07;5.43;;;18.70;99.90;;;;;;5114153;28;20508;-75
2022/08/23 05:17:13;;;;;;;9.93;5.73;;;18.60;99.90;;;;;;5113778;28;20937;-75
2022/08/23 05:19:40;;;;;;;9.83;6.40;;;18.60;99.90;;;;;;5113574;28;20470;-76
2022/08/23 05:22:08;;;;;;;6.90;5.63;;;18.60;99.90;;;;;;5114082;28;20447;-75
2022/08/23 05:24:35;;;;;;;6.83;5.33;;;18.70;99.90;;;;;;5114312;28;20977;-76
2022/08/23 05:27:02;;;;;;;6.13;5.53;;;18.80;99.90;;;;;;5113795;28;20446;-76
2022/08/23 05:29:28;;;;;;;6.63;6.03;;;18.90;99.90;;;;;;5113649;28;21027;-77
2022/08/23 05:31:56;;;;;;;7.10;6.40;;;18.90;99.90;;;;;;5113582;28;20451;-76
2022/08/23 05:34:23;;;;;;;8.30;5.90;;;18.80;99.90;;;;;;5113527;28;20451;-76
2022/08/23 05:36:49;;;;;;;8.10;6.17;;;18.70;99.90;;;;;;5114244;28;20953;-75
2022/08/23 05:39:17;;;;;;;6.50;5.90;;;18.80;99.90;;;;;;5113777;28;20841;-75
2022/08/23 05:41:44;;;;;;;6.07;5.33;;;18.70;99.90;;;;;;5113192;28;20447;-75
2022/08/23 05:44:12;;;;;;;7.47;6.20;;;18.70;99.90;;;;;;5113944;28;20442;-75
2022/08/23 05:46:40;;;;;;;6.67;5.60;;;18.70;99.90;;;;;;5113216;28;20487;-75
2022/08/23 05:49:07;;;;;;;8.10;6.23;;;18.70;99.90;;;;;;5113510;28;20494;-75
2022/08/23 05:51:35;;;;;;;14.10;6.60;;;18.70;99.90;;;;;;5113589;28;20786;-75
2022/08/23 05:54:04;;;;;;;6.37;5.77;;;18.70;99.90;;;;;;5113604;28;20515;-75
2022/08/23 05:56:34;;;;;;;6.57;5.27;;;18.70;99.90;;;;;;5114359;28;20845;-75
2022/08/23 05:59:04;;;;;;;8.20;6.07;;;18.80;99.90;;;;;;5113760;28;20542;-76
2022/08/23 06:01:32;;;;;;;7.03;6.10;;;18.80;99.90;;;;;;5113107;28;20485;-76
2022/08/23 06:04:00;;;;;;;10.03;5.70;;;18.90;99.90;;;;;;5113300;28;20443;-76
2022/08/23 06:06:27;;;;;;;8.43;5.90;;;18.90;99.90;;;;;;5113379;28;20852;-77
2022/08/23 06:08:54;;;;;;;7.73;6.00;;;18.80;99.90;;;;;;5113112;28;20518;-76
2022/08/23 06:11:23;;;;;;;8.10;5.60;;;18.80;99.90;;;;;;5113517;28;20766;-76
2022/08/23 06:13:53;;;;;;;9.63;6.23;;;18.80;99.90;;;;;;5113519;28;20443;-76
2022/08/23 06:16:23;;;;;;;11.33;6.10;;;18.90;99.90;;;;;;5113660;28;20443;-77
2022/08/23 06:18:51;;;;;;;12.33;6.00;;;18.90;99.90;;;;;;5113355;28;20494;-75
2022/08/23 06:21:18;;;;;;;8.40;5.40;;;19.00;99.90;;;;;;5112870;28;20442;-76
2022/08/23 06:23:46;;;;;;;6.30;5.63;;;19.00;99.90;;;;;;5113376;28;20442;-75
2022/08/23 06:26:15;;;;;;;5.97;4.73;;;19.00;99.90;;;;;;5113211;28;20863;-76
2022/08/23 06:28:43;;;;;;;6.20;5.03;;;19.10;99.90;;;;;;5112998;28;20470;-77
2022/08/23 06:31:11;;;;;;;6.60;5.60;;;19.10;99.90;;;;;;5112831;28;20431;-76
2022/08/23 06:33:40;;;;;;;6.70;5.43;;;19.10;99.90;;;;;;5113029;28;20443;-76
2022/08/23 06:36:10;;;;;;;5.40;5.00;;;19.10;99.90;;;;;;5112954;28;20443;-76
2022/08/23 06:38:37;;;;;;;9.33;6.30;;;19.30;99.90;;;;;;5112679;28;20485;-75
2022/08/23 06:41:07;;;;;;;7.80;5.70;;;19.20;99.90;;;;;;5113153;28;20420;-75
2022/08/23 06:43:35;;;;;;;7.60;5.27;;;19.20;99.90;;;;;;5113692;28;20844;-76
2022/08/23 06:46:11;;;;;;;6.23;5.00;;;19.30;99.90;;;;;;5116683;28;20493;-76
2022/08/23 06:48:38;;;;;;;9.50;5.40;;;19.30;99.90;;;;;;5116467;28;20438;-75
2022/08/23 06:51:10;;;;;;;6.33;5.63;;;19.40;99.90;;;;;;5116683;27;20776;-76
2022/08/23 06:53:37;;;;;;;7.67;5.10;;;19.60;99.90;;;;;;5116237;28;20435;-76
2022/08/23 06:56:04;;;;;;;14.17;4.87;;;19.60;99.90;;;;;;5116650;28;20446;-74
2022/08/23 06:58:31;;;;;;;7.47;6.30;;;19.80;90.20;;;;;;5115911;28;20930;-77
2022/08/23 07:01:11;;;;;;;8.27;5.13;;;19.60;61.10;;;;;;5116640;28;20443;-75
2022/08/23 07:03:38;;;;;;;6.83;5.00;;;19.60;99.90;;;;;;5117177;28;20779;-75
2022/08/23 07:06:06;;;;;;;5.47;4.83;;;19.70;45.70;;;;;;5116953;28;20442;-75
2022/08/23 07:08:33;;;;;;;16.20;5.10;;;19.70;51.90;;;;;;5116168;28;20442;-74
2022/08/23 07:10:59;;;;;;;8.60;5.30;;;19.80;33.40;;;;;;5116667;27;20489;-75
2022/08/23 07:13:26;;;;;;;6.27;4.30;;;19.70;85.20;;;;;;5116280;28;20450;-76
2022/08/23 07:15:57;;;;;;;5.63;4.90;;;19.90;55.40;;;;;;5116169;28;20443;-75
2022/08/23 07:18:25;;;;;;;7.00;5.00;;;20.00;59.90;;;;;;5116553;28;20768;-76
2022/08/23 07:20:56;;;;;;;7.50;5.40;;;20.10;1.00;;;;;;5115943;27;20998;-75
2022/08/23 07:23:23;;;;;;;7.70;4.97;;;20.10;1.00;;;;;;5115674;28;20910;-76
2022/08/23 07:25:50;;;;;;;7.90;5.10;;;20.10;1.00;;;;;;5116137;28;20450;-76
2022/08/23 07:28:17;;;;;;;5.67;5.17;;;20.10;16.50;;;;;;5115910;28;20492;-76
2022/08/23 07:30:44;;;;;;;10.03;5.50;;;20.10;88.00;;;;;;5116111;28;20493;-77
2022/08/23 07:33:11;;;;;;;6.67;5.37;;;20.20;1.00;;;;;;5115982;28;20447;-77
2022/08/23 07:35:46;;;;;;;9.20;4.60;;;20.20;1.00;;;;;;5116150;28;20447;-76
2022/08/23 07:38:14;;;;;;;7.37;5.43;;;20.30;29.70;;;;;;5116189;28;20427;-76
2022/08/23 07:40:40;;;;;;;5.33;4.67;;;20.30;1.00;;;;;;5115860;28;20475;-78
2022/08/23 07:43:07;;;;;;;6.30;4.07;;;20.40;17.90;;;;;;5115669;28;20443;-77
2022/08/23 07:45:35;;;;;;;5.90;4.73;;;20.40;1.00;;;;;;5115913;28;20450;-78
2022/08/23 07:48:02;;;;;;;7.70;5.20;;;20.30;1.00;;;;;;5115529;28;20826;-76
2022/08/23 07:50:29;;;;;;;9.17;5.00;;;20.50;1.00;;;;;;5116724;28;20486;-76
2022/08/23 07:52:58;;;;;;;10.60;4.80;;;20.70;1.00;;;;;;5115991;28;20451;-77
2022/08/23 07:55:25;;;;;;;10.87;4.50;;;20.80;1.00;;;;;;5116194;28;20557;-76
2022/08/23 07:57:51;;;;;;;6.43;4.20;;;20.80;1.00;;;;;;5115420;28;20451;-76
2022/08/23 08:00:18;;;;;;;5.87;4.60;;;20.60;1.00;;;;;;5115210;28;20876;-77
2022/08/23 08:02:45;;;;;;;6.73;4.33;;;20.60;1.00;;;;;;5115446;28;20454;-77
2022/08/23 08:05:12;;;;;;;8.90;4.73;;;20.60;1.00;;;;;;5115235;28;20443;-77
2022/08/23 08:07:39;;;;;;;5.20;4.70;;;20.60;1.00;;;;;;5114981;28;20451;-76
2022/08/23 08:10:08;;;;;;;4.77;4.10;;;20.60;1.00;;;;;;5114899;28;20483;-76
2022/08/23 08:12:34;;;;;;;13.17;6.20;;;20.80;1.00;;;;;;5115285;28;20451;-76
2022/08/23 08:15:01;;;;;;;5.13;4.60;;;20.80;1.00;;;;;;5116900;28;20788;-77
2022/08/23 08:17:28;;;;;;;4.43;4.00;;;20.70;1.00;;;;;;5115595;28;20447;-77
2022/08/23 08:19:55;;;;;;;6.20;3.70;;;20.70;1.00;;;;;;5114514;28;20466;-76
2022/08/23 08:22:21;;;;;;;6.23;4.57;;;21.00;1.00;;;;;;5114974;28;20454;-77
2022/08/23 08:24:48;;;;;;;5.80;4.00;;;21.10;1.00;;;;;;5115729;28;20443;-76
2022/08/23 08:27:16;;;;;;;5.50;3.93;;;21.20;1.00;;;;;;5115212;27;20446;-78
2022/08/23 08:29:43;;;;;;;7.70;4.53;;;21.30;1.00;;;;;;5114928;28;20483;-79
2022/08/23 08:32:10;;;;;;;4.90;3.77;;;21.40;1.00;;;;;;5115425;28;20447;-77
2022/08/23 08:34:37;;;;;;;4.50;3.37;;;21.50;1.00;;;;;;5114984;28;20477;-77
2022/08/23 08:37:04;;;;;;;9.43;4.00;;;21.50;99.90;;;;;;5114964;28;20447;-77
2022/08/23 08:39:32;;;;;;;4.37;3.83;;;21.50;1.00;;;;;;5114149;28;20467;-77
2022/08/23 08:42:09;;;;;;;3.60;3.20;;;21.40;99.90;;;;;;5114453;28;20450;-77
2022/08/23 08:44:44;;;;;;;5.30;3.90;;;21.50;99.90;;;;;;5114624;28;20435;-77
2022/08/23 08:47:17;;;;;;;6.67;3.80;;;21.60;44.30;;;;;;5115174;28;20866;-77
2022/08/23 08:49:48;;;;;;;6.30;3.90;;;21.60;1.00;;;;;;5116505;28;20474;-77
2022/08/23 08:52:20;;;;;;;5.63;3.63;;;21.60;99.90;;;;;;5128329;28;20435;-76
2022/08/23 08:54:50;;;;;;;7.27;4.20;;;21.60;99.90;;;;;;5129566;28;20545;-75
2022/08/23 08:57:22;;;;;;;5.70;4.17;;;21.60;99.90;;;;;;5132183;28;20439;-75
2022/08/23 08:59:58;;;;;;;4.13;3.73;;;21.60;1.00;;;;;;5134024;28;20448;-77
2022/08/23 09:02:29;;;;;;;5.93;3.53;;;21.60;99.90;;;;;;5133571;28;20425;-76
2022/08/23 09:04:57;;;;;;;6.00;4.07;;;21.70;99.90;;;;;;5118987;28;20420;-77
2022/08/23 09:07:26;;;;;;;7.60;4.43;;;21.60;99.90;;;;;;5114408;28;20450;-77
2022/08/23 09:10:15;;;;;;;8.20;3.87;;;21.60;99.90;;;;;;5115025;28;20478;-77
2022/08/23 09:12:50;;;;;;;5.30;3.87;;;21.70;1.00;;;;;;5114240;28;20438;-77
2022/08/23 09:15:29;;;;;;;4.53;4.13;;;21.70;99.90;;;;;;5115284;28;20430;-77
2022/08/23 09:17:58;;;;;;;4.37;4.00;;;21.70;1.00;;;;;;5114831;28;20427;-77
2022/08/23 09:20:28;;;;;;;7.40;4.27;;;21.60;99.90;;;;;;5114401;28;20463;-77
2022/08/23 09:23:03;;;;;;;3.83;3.30;;;21.70;1.00;;;;;;5114055;28;21013;-76
2022/08/23 09:25:30;;;;;;;6.60;4.00;;;21.70;99.90;;;;;;5114708;28;20426;-77
2022/08/23 09:27:57;;;;;;;4.90;3.90;;;21.80;1.00;;;;;;5114119;28;20447;-76
2022/08/23 09:30:49;;;;;;;9.20;4.03;;;21.80;1.00;;;;;;5113567;28;20532;-77
2022/08/23 09:33:18;;;;;;;4.50;3.60;;;21.80;54.80;;;;;;5113918;28;20946;-76
2022/08/23 09:36:03;;;;;;;3.80;3.50;;;22.00;99.90;;;;;;5114401;28;20456;-76
2022/08/23 09:38:29;;;;;;;3.50;3.30;;;22.10;99.90;;;;;;5114199;28;20427;-76
2022/08/23 09:40:57;;;;;;;6.50;4.80;;;22.10;99.90;;;;;;5110904;22;20496;-74
2022/08/23 09:43:26;;;;;;;5.17;4.67;;;22.10;1.00;;;;;;5093125;28;20977;-75
2022/08/23 09:45:58;;;;;;;11.57;4.60;;;22.10;99.90;;;;;;5093190;28;20531;-74
2022/08/23 09:48:38;;;;;;;5.77;4.20;;;22.10;1.00;;;;;;5093058;28;20428;-75
2022/08/23 09:51:17;;;;;;;127.17;54.23;;;22.10;1.00;;;;;;5092815;28;20561;-75
2022/08/23 09:53:48;;;;;;;6.20;4.87;;;22.10;1.00;;;;;;5093121;28;20880;-74
2022/08/23 09:56:22;;;;;;;4.40;4.00;;;22.10;99.90;;;;;;5092848;28;20952;-74
2022/08/23 09:58:52;;;;;;;8.50;4.00;;;22.20;99.90;;;;;;5093171;28;20424;-74
2022/08/23 10:01:24;;;;;;;5.47;4.50;;;22.20;99.90;;;;;;5092965;28;20424;-75
2022/08/23 10:04:08;;;;;;;4.70;3.50;;;22.40;1.00;;;;;;5093085;28;20514;-74
2022/08/23 10:06:35;;;;;;;13.03;5.57;;;22.40;1.00;;;;;;5092828;28;20481;-75
2022/08/23 10:09:04;;;;;;;8.23;4.80;;;22.50;1.00;;;;;;5092894;28;20459;-75
2022/08/23 10:11:35;;;;;;;5.60;5.00;;;22.60;1.00;;;;;;5092602;28;20522;-74
2022/08/23 10:14:01;;;;;;;4.40;3.70;;;22.40;99.90;;;;;;5092568;28;20908;-74
2022/08/23 10:16:39;;;;;;;4.13;3.70;;;22.40;99.90;;;;;;5092817;28;20814;-75
2022/08/23 10:19:14;;;;;;;11.57;4.87;;;22.50;1.00;;;;;;5094589;28;20439;-74
2022/08/23 10:21:45;;;;;;;5.17;4.77;;;22.20;1.00;;;;;;5096690;28;20427;-75
2022/08/23 10:24:29;;;;;;;4.30;3.90;;;22.50;99.90;;;;;;5096852;28;20439;-75
2022/08/23 10:30:10;;;;;;;5.97;4.60;;;22.70;99.90;;;;;;5096333;28;20514;-75
2022/08/23 10:32:47;;;;;;;7.60;4.87;;;22.60;99.90;;;;;;5096231;28;20439;-74
2022/08/23 10:35:30;;;;;;;4.80;4.40;;;22.70;1.00;;;;;;5096534;28;20431;-74
2022/08/23 10:38:18;;;;;;;6.20;5.63;;;22.70;3.60;;;;;;5096752;28;20432;-75
2022/08/23 10:40:51;;;;;;;6.00;5.40;;;22.70;1.00;;;;;;5096144;28;20532;-74
2022/08/23 10:43:29;;;;;;;5.70;4.83;;;22.80;1.00;;;;;;5096581;28;20516;-74
2022/08/23 10:45:59;;;;;;;7.93;6.77;;;22.70;1.00;;;;;;5095840;28;20434;-74
2022/08/23 10:48:30;;;;;;;6.90;6.30;;;22.80;1.00;;;;;;5096766;28;21235;-74
2022/08/23 10:51:00;;;;;;;5.93;5.53;;;23.10;99.90;;;;;;5095239;28;20537;-74
2022/08/23 10:53:36;;;;;;;6.33;5.70;;;23.00;1.00;;;;;;5096280;28;20463;-74
2022/08/23 10:56:03;;;;;;;7.07;6.10;;;23.10;1.00;;;;;;5096085;28;20435;-74
2022/08/23 10:58:37;;;;;;;5.70;5.20;;;23.00;99.90;;;;;;5095251;28;20447;-75
2022/08/23 11:01:04;;;;;;;6.50;5.83;;;22.90;1.00;;;;;;5095687;28;20460;-74
2022/08/23 11:03:37;;;;;;;6.10;5.23;;;23.10;1.00;;;;;;5095750;28;20451;-74
2022/08/23 11:06:43;;;;;;;6.23;5.63;;;23.00;99.90;;;;;;5095917;28;20440;-74
2022/08/23 11:09:30;;;;;;;10.23;8.37;;;23.00;99.90;;;;;;5085140;28;20838;-75
2022/08/23 11:12:13;;;;;;;5.90;5.40;;;23.00;1.00;;;;;;5095327;28;20464;-74
2022/08/23 11:14:45;;;;;;;7.27;6.10;;;23.00;99.90;;;;;;5095353;28;20799;-75
2022/08/23 11:17:25;;;;;;;5.57;5.17;;;23.10;1.00;;;;;;5095224;28;20428;-74
2022/08/23 11:19:55;;;;;;;5.30;4.80;;;23.20;99.90;;;;;;5095260;28;20513;-75
2022/08/23 11:22:24;;;;;;;6.33;5.70;;;23.00;99.90;;;;;;5094893;28;20923;-74
2022/08/23 11:24:58;;;;;;;5.00;4.50;;;23.00;99.90;;;;;;5095204;28;20452;-74
2022/08/23 11:27:31;;;;;;;6.70;4.27;;;23.00;1.00;;;;;;5094660;28;20431;-76
2022/08/23 11:29:58;;;;;;;8.43;5.00;;;23.00;99.90;;;;;;5094329;28;20558;-74
2022/08/23 11:32:36;;;;;;;7.23;5.07;;;23.00;99.90;;;;;;5094785;28;20489;-75
2022/08/23 11:35:11;;;;;;;4.40;4.00;;;23.00;99.90;;;;;;5094728;28;20932;-74
2022/08/23 11:37:56;;;;;;;5.10;4.70;;;23.10;99.90;;;;;;5094857;28;20815;-74
2022/08/23 11:40:55;;;;;;;5.63;4.83;;;23.20;99.90;;;;;;5094379;28;20983;-74
2022/08/23 11:43:36;;;;;;;10.30;5.80;;;23.30;99.90;;;;;;5094513;28;20432;-75
2022/08/23 11:46:30;;;;;;;6.90;6.20;;;23.20;99.90;;;;;;5094485;28;20802;-74
2022/08/23 11:49:15;;;;;;;8.23;5.50;;;23.00;99.90;;;;;;5092573;28;20491;-74
2022/08/23 11:51:57;;;;;;;9.03;4.70;;;23.30;99.90;;;;;;5094847;28;20900;-75
2022/08/23 11:54:40;;;;;;;5.00;4.50;;;23.30;99.90;;;;;;5094848;28;20428;-74
2022/08/23 11:57:19;;;;;;;10.90;4.97;;;23.50;99.90;;;;;;5095105;28;20490;-75
2022/08/23 12:00:16;;;;;;;6.10;5.40;;;23.70;99.90;;;;;;5094808;28;20470;-74
2022/08/23 12:03:00;;;;;;;4.80;4.43;;;23.80;99.90;;;;;;5094682;28;20995;-75
2022/08/23 12:06:02;;;;;;;7.90;5.27;;;23.80;87.00;;;;;;5094562;28;20515;-75
2022/08/23 12:08:47;;;;;;;8.00;5.43;;;23.70;99.90;;;;;;5094155;28;20966;-74
2022/08/23 12:11:16;;;;;;;6.10;5.33;;;23.80;99.90;;;;;;5091554;28;20486;-75
2022/08/23 12:13:59;;;;;;;6.63;6.00;;;24.00;99.90;;;;;;5094277;28;20451;-74
2022/08/23 12:16:30;;;;;;;7.90;5.57;;;23.90;42.00;;;;;;5094528;28;20892;-74
2022/08/23 12:19:01;;;;;;;6.30;5.60;;;23.50;99.30;;;;;;5094415;28;20511;-74
2022/08/23 12:21:32;;;;;;;6.07;5.60;;;23.70;15.00;;;;;;5094769;28;20440;-74
2022/08/23 12:24:15;;;;;;;6.70;5.90;;;23.80;99.90;;;;;;5093895;28;20424;-74
2022/08/23 12:26:49;;;;;;;8.90;5.43;;;23.80;99.90;;;;;;5094256;28;20428;-74
2022/08/23 12:29:27;;;;;;;5.57;5.07;;;23.80;89.70;;;;;;5094195;28;20464;-74
2022/08/23 12:32:00;;;;;;;5.30;4.47;;;23.90;99.90;;;;;;5094478;28;20501;-74
2022/08/23 12:34:33;;;;;;;5.90;5.37;;;23.80;1.00;;;;;;5101933;28;20430;-74
2022/08/23 12:37:09;;;;;;;6.27;4.37;;;24.00;99.90;;;;;;5113376;28;20428;-75
2022/08/23 12:39:40;;;;;;;6.00;4.97;;;24.10;4.50;;;;;;5097288;28;20479;-75
2022/08/23 12:42:14;;;;;;;5.77;4.80;;;24.10;83.20;;;;;;5094707;28;20424;-75
2022/08/23 12:44:42;;;;;;;3.97;3.67;;;24.00;1.00;;;;;;5094682;28;20519;-75
2022/08/23 12:47:12;;;;;;;6.43;4.57;;;24.10;99.90;;;;;;5094815;28;20444;-74
2022/08/23 12:49:39;;;;;;;4.30;3.90;;;24.10;82.30;;;;;;5095472;28;20472;-74
2022/08/23 12:52:09;;;;;;;4.00;3.70;;;24.10;1.00;;;;;;5094682;28;20820;-74
2022/08/23 12:54:40;;;;;;;5.77;4.60;;;24.10;99.90;;;;;;5094375;28;20439;-75
2022/08/23 12:57:10;;;;;;;4.93;4.33;;;23.90;1.00;;;;;;5094295;28;20747;-75
2022/08/23 12:59:41;;;;;;;5.60;5.00;;;24.00;29.50;;;;;;5095589;28;20480;-75
2022/08/23 13:02:12;;;;;;;4.63;3.20;;;24.10;1.00;;;;;;5094440;28;20432;-74
2022/08/23 13:04:40;;;;;;;5.83;5.30;;;24.30;1.00;;;;;;5094787;28;20424;-75
2022/08/23 13:07:10;;;;;;;5.40;3.63;;;24.30;1.00;;;;;;5094573;28;20448;-74
2022/08/23 13:09:42;;;;;;;5.70;4.37;;;24.40;1.00;;;;;;5094197;28;20538;-75
2022/08/23 13:12:11;;;;;;;4.73;3.17;;;24.60;1.00;;;;;;5094148;28;20464;-75
2022/08/23 13:14:43;;;;;;;5.97;3.10;;;24.60;1.00;;;;;;5094124;28;20839;-74